Time;durP1;ratioP1;P1;durP2;ratioP2;P2;SDS_P1;SDS_P2;PMS_P1;PMS_P2;Temp;Humidity;BMP_temperature;BMP_pressure;BME280_temperature;BME280_humidity;BME280_pressure;Samples;Min_cycle;Max_cycle;Signal;HPM_P1;HPM_P2
2021/09/19 00:00:33;;;;;;;9.80;6.03;;;;;;;;;;5057724;28;20041;-86
2021/09/19 00:03:00;;;;;;;10.68;6.15;;;;;;;;;;5040878;28;20044;-88
2021/09/19 00:05:27;;;;;;;8.98;6.15;;;;;;;;;;5058501;28;20381;-87
2021/09/19 00:07:53;;;;;;;11.10;6.05;;;;;;;;;;5055785;28;20496;-86
2021/09/19 00:10:20;;;;;;;9.88;6.18;;;;;;;;;;5057752;28;20048;-86
2021/09/19 00:12:47;;;;;;;8.32;5.97;;;;;;;;;;5057644;28;20055;-87
2021/09/19 00:15:18;;;;;;;9.75;6.43;;;;;;;;;;5057827;28;20049;-86
2021/09/19 00:17:45;;;;;;;8.70;5.57;;;;;;;;;;5057603;28;20051;-87
2021/09/19 00:20:12;;;;;;;11.13;7.15;;;;;;;;;;5053551;28;20049;-86
2021/09/19 00:22:39;;;;;;;10.10;6.25;;;;;;;;;;5058149;28;20536;-86
2021/09/19 00:25:09;;;;;;;8.52;6.35;;;;;;;;;;5060784;28;20049;-86
2021/09/19 00:27:36;;;;;;;10.98;6.55;;;;;;;;;;5058173;28;20045;-86
2021/09/19 00:30:04;;;;;;;10.52;6.97;;;;;;;;;;5058497;28;20041;-87
2021/09/19 00:32:32;;;;;;;10.30;6.75;;;;;;;;;;5056862;28;20047;-86
2021/09/19 00:35:01;;;;;;;9.10;6.57;;;;;;;;;;5056927;28;20049;-86
2021/09/19 00:37:28;;;;;;;10.07;6.88;;;;;;;;;;5057896;28;20076;-86
2021/09/19 00:39:55;;;;;;;8.77;6.00;;;;;;;;;;5040437;28;20045;-87
2021/09/19 00:42:21;;;;;;;11.60;5.97;;;;;;;;;;5004171;28;20049;-86
2021/09/19 00:44:57;;;;;;;9.40;6.45;;;;;;;;;;5037234;28;20050;-86
2021/09/19 00:47:24;;;;;;;9.93;5.50;;;;;;;;;;5037227;28;20041;-87
2021/09/19 00:49:52;;;;;;;8.88;5.88;;;;;;;;;;5051003;28;20059;-87
2021/09/19 00:52:19;;;;;;;8.52;5.82;;;;;;;;;;5039662;28;20465;-87
2021/09/19 00:54:48;;;;;;;9.82;5.90;;;;;;;;;;5055731;28;20056;-86
2021/09/19 00:57:16;;;;;;;8.40;5.22;;;;;;;;;;5040623;28;20068;-86
2021/09/19 00:59:48;;;;;;;8.05;5.68;;;;;;;;;;5056701;28;20056;-86
2021/09/19 01:02:15;;;;;;;7.97;5.72;;;;;;;;;;5057919;28;20051;-86
2021/09/19 01:04:42;;;;;;;8.45;6.07;;;;;;;;;;5057317;28;20041;-86
2021/09/19 01:07:10;;;;;;;10.13;6.63;;;;;;;;;;5040574;28;20496;-86
2021/09/19 01:09:38;;;;;;;8.93;6.22;;;;;;;;;;5056786;28;20045;-87
2021/09/19 01:12:05;;;;;;;8.07;5.38;;;;;;;;;;5057005;28;20390;-87
2021/09/19 01:14:33;;;;;;;9.82;6.18;;;;;;;;;;5055609;28;20385;-88
2021/09/19 01:17:00;;;;;;;10.05;6.00;;;;;;;;;;5038988;28;20044;-86
2021/09/19 01:19:27;;;;;;;7.93;5.38;;;;;;;;;;5056093;28;20384;-87
2021/09/19 01:21:54;;;;;;;7.63;5.65;;;;;;;;;;5055832;28;20067;-87
2021/09/19 01:24:25;;;;;;;8.93;5.72;;;;;;;;;;5058452;28;20381;-85
2021/09/19 01:26:52;;;;;;;10.25;6.00;;;;;;;;;;5057769;28;20045;-87
2021/09/19 01:29:19;;;;;;;9.90;6.82;;;;;;;;;;5045502;28;20045;-86
2021/09/19 01:31:45;;;;;;;8.75;6.00;;;;;;;;;;5038230;28;20053;-86
2021/09/19 01:34:12;;;;;;;10.73;7.32;;;;;;;;;;5038628;28;20050;-86
2021/09/19 01:36:40;;;;;;;9.30;6.10;;;;;;;;;;5039560;28;20045;-86
2021/09/19 01:39:07;;;;;;;8.60;5.97;;;;;;;;;;5032075;28;20044;-87
2021/09/19 01:41:36;;;;;;;10.05;6.57;;;;;;;;;;5056216;28;20051;-88
2021/09/19 01:44:04;;;;;;;9.43;6.25;;;;;;;;;;5055812;28;20175;-86
2021/09/19 01:46:31;;;;;;;8.38;5.88;;;;;;;;;;5057498;28;20045;-86
2021/09/19 01:48:58;;;;;;;9.15;6.38;;;;;;;;;;5046431;28;20048;-87
2021/09/19 01:51:25;;;;;;;9.45;5.90;;;;;;;;;;5044157;28;20500;-88
2021/09/19 01:53:51;;;;;;;8.40;5.85;;;;;;;;;;5054685;28;20070;-87
2021/09/19 01:56:24;;;;;;;10.35;6.45;;;;;;;;;;5056429;28;20046;-86
2021/09/19 01:58:54;;;;;;;9.15;5.95;;;;;;;;;;5053894;28;20057;-88
2021/09/19 02:01:22;;;;;;;9.95;6.30;;;;;;;;;;5058351;28;20048;-86
2021/09/19 02:03:49;;;;;;;9.32;6.03;;;;;;;;;;5059013;28;20067;-86
2021/09/19 02:06:16;;;;;;;9.70;6.28;;;;;;;;;;5056701;28;20068;-87
2021/09/19 02:08:44;;;;;;;9.55;6.40;;;;;;;;;;5046443;28;20042;-87
2021/09/19 02:11:12;;;;;;;10.25;6.75;;;;;;;;;;5033668;28;20048;-87
2021/09/19 02:13:40;;;;;;;10.35;6.70;;;;;;;;;;5034813;28;20180;-87
2021/09/19 02:16:09;;;;;;;8.68;6.00;;;;;;;;;;5033828;28;20042;-88
2021/09/19 02:18:36;;;;;;;12.85;7.22;;;;;;;;;;5040497;28;20041;-87
2021/09/19 02:21:05;;;;;;;10.27;6.38;;;;;;;;;;5056076;28;20047;-87
2021/09/19 02:23:32;;;;;;;10.10;6.43;;;;;;;;;;5055714;28;20067;-86
2021/09/19 02:25:59;;;;;;;10.45;7.13;;;;;;;;;;5057077;28;20045;-87
2021/09/19 02:28:26;;;;;;;11.50;7.63;;;;;;;;;;5054083;28;20067;-87
2021/09/19 02:30:53;;;;;;;10.25;7.13;;;;;;;;;;5053655;28;20393;-87
2021/09/19 02:33:22;;;;;;;11.50;7.38;;;;;;;;;;5055012;28;20041;-87
2021/09/19 02:35:48;;;;;;;9.93;6.60;;;;;;;;;;5054723;28;20108;-87
2021/09/19 02:38:15;;;;;;;10.30;6.45;;;;;;;;;;5053612;28;20052;-87
2021/09/19 02:40:42;;;;;;;11.02;7.00;;;;;;;;;;5053172;28;20052;-87
2021/09/19 02:43:09;;;;;;;10.57;6.50;;;;;;;;;;5054154;28;20193;-87
2021/09/19 02:45:36;;;;;;;12.15;7.78;;;;;;;;;;5054287;28;20044;-88
2021/09/19 02:48:03;;;;;;;10.35;6.97;;;;;;;;;;5037660;28;20045;-86
2021/09/19 02:50:31;;;;;;;11.10;7.22;;;;;;;;;;5053180;28;20473;-87
2021/09/19 02:52:58;;;;;;;10.18;6.82;;;;;;;;;;5032524;28;20099;-87
2021/09/19 02:55:25;;;;;;;8.73;6.10;;;;;;;;;;5048148;28;20500;-87
2021/09/19 02:57:51;;;;;;;8.48;6.03;;;;;;;;;;5054797;28;20485;-87
2021/09/19 03:00:20;;;;;;;9.35;6.35;;;;;;;;;;5038184;28;20045;-86
2021/09/19 03:02:48;;;;;;;10.02;6.80;;;;;;;;;;5071355;28;20052;-86
2021/09/19 03:05:15;;;;;;;9.45;6.57;;;;;;;;;;5052754;28;20055;-87
2021/09/19 03:07:44;;;;;;;11.85;7.05;;;;;;;;;;5056784;28;20051;-87
2021/09/19 03:10:12;;;;;;;10.10;6.75;;;;;;;;;;5034168;28;20053;-87
2021/09/19 03:12:39;;;;;;;11.10;6.47;;;;;;;;;;5032942;28;20046;-87
2021/09/19 03:15:08;;;;;;;9.57;6.60;;;;;;;;;;5033692;28;20065;-87
2021/09/19 03:17:35;;;;;;;10.38;6.60;;;;;;;;;;5000773;28;20041;-87
2021/09/19 03:20:02;;;;;;;11.07;6.43;;;;;;;;;;5051350;28;20477;-87
2021/09/19 03:22:29;;;;;;;10.20;5.88;;;;;;;;;;5053679;28;20045;-87
2021/09/19 03:24:57;;;;;;;9.10;6.05;;;;;;;;;;5053900;28;20045;-87
2021/09/19 03:27:24;;;;;;;11.43;6.00;;;;;;;;;;5053789;28;20534;-87
2021/09/19 03:29:50;;;;;;;8.52;5.82;;;;;;;;;;5040270;28;20045;-88
2021/09/19 03:32:17;;;;;;;9.27;5.47;;;;;;;;;;5059086;28;20053;-87
2021/09/19 03:34:44;;;;;;;9.60;6.35;;;;;;;;;;5030548;28;20049;-87
2021/09/19 03:37:11;;;;;;;11.00;6.28;;;;;;;;;;5039563;28;20056;-87
2021/09/19 03:39:37;;;;;;;12.13;7.00;;;;;;;;;;5024434;28;20095;-87
2021/09/19 03:42:06;;;;;;;8.80;5.75;;;;;;;;;;5040743;28;20045;-87
2021/09/19 03:44:33;;;;;;;8.38;6.32;;;;;;;;;;5039609;28;20041;-87
2021/09/19 03:47:00;;;;;;;9.38;6.38;;;;;;;;;;5022468;28;20052;-87
2021/09/19 03:49:27;;;;;;;9.48;6.32;;;;;;;;;;5007117;28;20048;-88
2021/09/19 03:51:54;;;;;;;11.05;7.00;;;;;;;;;;5043119;28;20056;-88
2021/09/19 03:54:20;;;;;;;9.55;6.30;;;;;;;;;;5057963;28;20048;-87
2021/09/19 03:56:48;;;;;;;12.93;7.28;;;;;;;;;;5059411;28;20036;-87
2021/09/19 03:59:17;;;;;;;11.40;7.28;;;;;;;;;;5042537;28;20041;-87
2021/09/19 04:01:43;;;;;;;10.35;6.07;;;;;;;;;;5042488;28;20049;-87
2021/09/19 04:04:10;;;;;;;11.60;6.57;;;;;;;;;;5039821;28;20087;-88
2021/09/19 04:06:37;;;;;;;9.82;6.18;;;;;;;;;;5038221;28;20055;-88
2021/09/19 04:09:04;;;;;;;10.10;6.80;;;;;;;;;;5033736;28;20043;-87
2021/09/19 04:11:30;;;;;;;10.55;6.85;;;;;;;;;;5060783;28;20041;-87
2021/09/19 04:13:57;;;;;;;9.95;6.85;;;;;;;;;;5059540;28;20047;-88
2021/09/19 04:16:25;;;;;;;12.85;6.30;;;;;;;;;;5042042;28;20469;-88
2021/09/19 04:18:52;;;;;;;11.52;7.63;;;;;;;;;;5058970;28;20052;-88
2021/09/19 04:21:19;;;;;;;10.90;7.55;;;;;;;;;;5058900;28;20041;-88
2021/09/19 04:23:46;;;;;;;10.32;6.55;;;;;;;;;;5057471;28;20044;-89
2021/09/19 04:26:13;;;;;;;10.40;6.53;;;;;;;;;;5038254;28;20049;-88
2021/09/19 04:28:40;;;;;;;10.35;6.82;;;;;;;;;;5039476;28;20041;-88
2021/09/19 04:31:06;;;;;;;9.57;6.30;;;;;;;;;;5038610;28;20465;-88
2021/09/19 04:33:35;;;;;;;11.15;7.35;;;;;;;;;;5038492;28;20091;-88
2021/09/19 04:36:01;;;;;;;11.00;7.07;;;;;;;;;;5039706;28;20041;-88
2021/09/19 04:38:28;;;;;;;11.40;7.18;;;;;;;;;;5025585;28;20111;-88
2021/09/19 04:40:55;;;;;;;12.45;8.52;;;;;;;;;;5035869;28;20135;-88
2021/09/19 04:43:22;;;;;;;13.40;7.28;;;;;;;;;;5035820;28;20051;-87
2021/09/19 04:45:49;;;;;;;9.98;7.03;;;;;;;;;;5035418;28;20048;-88
2021/09/19 04:48:15;;;;;;;10.55;6.88;;;;;;;;;;5038334;28;20392;-87
2021/09/19 04:50:44;;;;;;;12.95;6.97;;;;;;;;;;5056643;28;20040;-87
2021/09/19 04:53:11;;;;;;;19.98;7.32;;;;;;;;;;5039018;28;20045;-88
2021/09/19 04:55:38;;;;;;;18.67;8.15;;;;;;;;;;5027651;28;20060;-88
2021/09/19 04:58:04;;;;;;;18.08;8.40;;;;;;;;;;5030378;28;20052;-88
2021/09/19 05:00:31;;;;;;;44.10;9.60;;;;;;;;;;5055253;28;20500;-87
2021/09/19 05:02:58;;;;;;;13.23;6.80;;;;;;;;;;5055839;28;20633;-88
2021/09/19 05:05:25;;;;;;;12.30;7.28;;;;;;;;;;5038339;28;20166;-89
2021/09/19 05:07:54;;;;;;;15.52;7.47;;;;;;;;;;5055023;28;20366;-89
2021/09/19 05:10:21;;;;;;;10.50;7.25;;;;;;;;;;5054281;28;20481;-88
2021/09/19 05:12:47;;;;;;;12.50;8.45;;;;;;;;;;5054453;28;20041;-88
2021/09/19 05:15:14;;;;;;;14.15;9.07;;;;;;;;;;5056307;28;20045;-89
2021/09/19 05:17:41;;;;;;;18.65;8.55;;;;;;;;;;5055902;28;20053;-88
2021/09/19 05:20:09;;;;;;;12.98;8.50;;;;;;;;;;5035316;28;20400;-88
2021/09/19 05:22:36;;;;;;;10.95;7.07;;;;;;;;;;5036335;28;20144;-89
2021/09/19 05:25:05;;;;;;;10.48;7.30;;;;;;;;;;5035466;28;20116;-89
2021/09/19 05:27:32;;;;;;;11.65;7.82;;;;;;;;;;5034895;28;20042;-88
2021/09/19 05:29:59;;;;;;;11.57;7.75;;;;;;;;;;5052748;28;20044;-89
2021/09/19 05:32:26;;;;;;;12.25;7.68;;;;;;;;;;5055675;28;20036;-88
2021/09/19 05:34:52;;;;;;;10.60;7.28;;;;;;;;;;5055078;28;20051;-89
2021/09/19 05:37:19;;;;;;;14.98;11.00;;;;;;;;;;5054051;28;20041;-88
2021/09/19 05:39:46;;;;;;;12.07;9.07;;;;;;;;;;5054514;28;20053;-88
2021/09/19 05:42:14;;;;;;;15.68;9.52;;;;;;;;;;5054823;28;20048;-87
2021/09/19 05:44:41;;;;;;;12.77;8.13;;;;;;;;;;5054748;28;20392;-87
2021/09/19 05:47:08;;;;;;;11.55;6.75;;;;;;;;;;5038130;28;20053;-88
2021/09/19 05:49:35;;;;;;;11.43;6.68;;;;;;;;;;5053629;28;20044;-88
2021/09/19 05:52:02;;;;;;;12.20;7.13;;;;;;;;;;5053594;28;20392;-87
2021/09/19 05:54:28;;;;;;;15.77;7.93;;;;;;;;;;5052741;28;20388;-87
2021/09/19 05:56:55;;;;;;;10.77;7.53;;;;;;;;;;5054829;28;20048;-87
2021/09/19 05:59:23;;;;;;;11.32;8.20;;;;;;;;;;5037597;28;20439;-87
2021/09/19 06:01:51;;;;;;;12.30;8.88;;;;;;;;;;5053856;28;20469;-87
2021/09/19 06:04:18;;;;;;;14.02;7.43;;;;;;;;;;5054314;28;20045;-88
2021/09/19 06:06:45;;;;;;;13.73;8.40;;;;;;;;;;5054895;28;20045;-88
2021/09/19 06:09:12;;;;;;;18.75;10.95;;;;;;;;;;5050223;28;20697;-87
2021/09/19 06:11:39;;;;;;;19.58;11.55;;;;;;;;;;5053005;28;20041;-88
2021/09/19 06:14:06;;;;;;;15.07;9.77;;;;;;;;;;5053646;28;20041;-89
2021/09/19 06:16:34;;;;;;;14.05;8.85;;;;;;;;;;5054770;28;20385;-87
2021/09/19 06:19:01;;;;;;;14.02;9.40;;;;;;;;;;5042648;28;20056;-87
2021/09/19 06:21:28;;;;;;;15.20;9.60;;;;;;;;;;5033505;28;20049;-89
2021/09/19 06:23:55;;;;;;;17.13;11.43;;;;;;;;;;5033880;28;20080;-87
2021/09/19 06:26:21;;;;;;;22.08;13.18;;;;;;;;;;5034185;28;20046;-87
2021/09/19 06:28:48;;;;;;;19.83;11.90;;;;;;;;;;5043628;28;20040;-87
2021/09/19 06:31:16;;;;;;;24.00;13.20;;;;;;;;;;5037192;28;20457;-88
2021/09/19 06:33:45;;;;;;;16.70;10.60;;;;;;;;;;5036657;28;20053;-87
2021/09/19 06:36:11;;;;;;;17.20;9.50;;;;;;;;;;5053005;28;20049;-88
2021/09/19 06:38:38;;;;;;;16.48;9.50;;;;;;;;;;5052813;28;20041;-89
2021/09/19 06:41:05;;;;;;;14.35;9.48;;;;;;;;;;5052748;28;20041;-88
2021/09/19 06:43:32;;;;;;;12.75;8.63;;;;;;;;;;5052808;28;20052;-88
2021/09/19 06:45:58;;;;;;;25.77;8.77;;;;;;;;;;5019878;28;20102;-87
2021/09/19 06:48:25;;;;;;;14.50;8.60;;;;;;;;;;5048088;28;20037;-88
2021/09/19 06:50:53;;;;;;;13.55;8.52;;;;;;;;;;5032956;28;20049;-88
2021/09/19 06:53:20;;;;;;;12.20;8.35;;;;;;;;;;5032967;28;20053;-88
2021/09/19 06:55:47;;;;;;;11.02;7.88;;;;;;;;;;5024263;28;20049;-88
2021/09/19 06:58:14;;;;;;;12.45;9.18;;;;;;;;;;5035940;28;20428;-89
2021/09/19 07:00:41;;;;;;;11.60;7.80;;;;;;;;;;5052730;28;20052;-89
2021/09/19 07:03:07;;;;;;;9.63;7.13;;;;;;;;;;5035810;28;20049;-88
2021/09/19 07:05:34;;;;;;;13.90;7.90;;;;;;;;;;5035947;28;20473;-89
2021/09/19 07:08:04;;;;;;;11.27;7.22;;;;;;;;;;5048295;28;20045;-88
2021/09/19 07:10:30;;;;;;;12.27;8.82;;;;;;;;;;5019859;28;20049;-86
2021/09/19 07:12:57;;;;;;;10.25;7.78;;;;;;;;;;5044626;28;20041;-86
2021/09/19 07:15:24;;;;;;;11.68;7.50;;;;;;;;;;5049348;28;20045;-87
2021/09/19 07:17:51;;;;;;;11.73;8.07;;;;;;;;;;5050096;28;20052;-87
2021/09/19 07:20:21;;;;;;;10.43;7.03;;;;;;;;;;5046501;28;20048;-89
2021/09/19 07:22:48;;;;;;;13.10;7.97;;;;;;;;;;5039523;28;20045;-88
2021/09/19 07:25:16;;;;;;;10.50;6.70;;;;;;;;;;5035628;28;20042;-87
2021/09/19 07:27:43;;;;;;;9.85;7.25;;;;;;;;;;5016276;28;20631;-87
2021/09/19 07:30:11;;;;;;;10.43;8.00;;;;;;;;;;5052436;28;20041;-87
2021/09/19 07:32:39;;;;;;;8.85;7.22;;;;;;;;;;5052308;28;20049;-88
2021/09/19 07:35:07;;;;;;;9.32;7.03;;;;;;;;;;5052177;28;20047;-87
2021/09/19 07:37:34;;;;;;;10.25;7.55;;;;;;;;;;5053668;28;20076;-87
2021/09/19 07:40:01;;;;;;;10.50;7.28;;;;;;;;;;5051550;28;20395;-88
2021/09/19 07:42:30;;;;;;;12.95;7.57;;;;;;;;;;5051833;28;20500;-89
2021/09/19 07:44:57;;;;;;;11.25;7.47;;;;;;;;;;5035542;28;20413;-89
2021/09/19 07:47:27;;;;;;;11.85;8.15;;;;;;;;;;5051958;28;20124;-87
2021/09/19 07:49:54;;;;;;;9.98;7.47;;;;;;;;;;5051436;28;20128;-88
2021/09/19 07:52:32;;;;;;;10.98;7.72;;;;;;;;;;5052248;28;20045;-88
2021/09/19 07:54:59;;;;;;;10.85;7.05;;;;;;;;;;5044918;28;20046;-88
2021/09/19 07:57:27;;;;;;;10.18;8.07;;;;;;;;;;5048190;28;20048;-87
2021/09/19 07:59:55;;;;;;;9.57;7.68;;;;;;;;;;5043274;28;20052;-88
2021/09/19 08:02:23;;;;;;;15.15;8.27;;;;;;;;;;5052006;28;20473;-88
2021/09/19 08:04:49;;;;;;;10.35;7.28;;;;;;;;;;5052786;28;20799;-88
2021/09/19 08:07:20;;;;;;;11.13;7.45;;;;;;;;;;5052840;28;20045;-87
2021/09/19 08:09:47;;;;;;;10.05;7.20;;;;;;;;;;5044278;28;20041;-89
2021/09/19 08:12:14;;;;;;;12.98;8.52;;;;;;;;;;5043982;28;20128;-88
2021/09/19 08:14:40;;;;;;;10.07;7.90;;;;;;;;;;5044041;28;20072;-88
2021/09/19 08:17:09;;;;;;;13.07;7.38;;;;;;;;;;5055277;28;20052;-88
2021/09/19 08:19:36;;;;;;;10.60;7.43;;;;;;;;;;5046618;28;20100;-88
2021/09/19 08:22:03;;;;;;;10.10;7.57;;;;;;;;;;5045968;28;20045;-87
2021/09/19 08:24:29;;;;;;;10.93;8.05;;;;;;;;;;5041636;28;20045;-88
2021/09/19 08:26:56;;;;;;;13.45;9.48;;;;;;;;;;5036587;28;20052;-87
2021/09/19 08:29:23;;;;;;;10.77;7.78;;;;;;;;;;5040627;28;20458;-88
2021/09/19 08:31:53;;;;;;;10.98;8.85;;;;;;;;;;5053559;28;20139;-87
2021/09/19 08:34:21;;;;;;;12.82;9.38;;;;;;;;;;5054931;28;20106;-88
2021/09/19 08:36:48;;;;;;;14.00;8.55;;;;;;;;;;5055644;28;20041;-88
2021/09/19 08:39:15;;;;;;;13.00;9.15;;;;;;;;;;5054839;28;20053;-88
2021/09/19 08:41:42;;;;;;;12.80;9.80;;;;;;;;;;5052316;28;20128;-89
2021/09/19 08:44:08;;;;;;;11.73;9.00;;;;;;;;;;5044725;28;20056;-90
2021/09/19 08:46:37;;;;;;;12.63;9.43;;;;;;;;;;5055372;28;20044;-89
2021/09/19 08:49:04;;;;;;;12.98;9.85;;;;;;;;;;5051192;28;20074;-89
2021/09/19 08:51:35;;;;;;;11.82;8.85;;;;;;;;;;5021706;28;20041;-89
2021/09/19 08:54:01;;;;;;;11.40;8.82;;;;;;;;;;5037740;28;20055;-89
2021/09/19 08:56:28;;;;;;;12.27;9.00;;;;;;;;;;5054586;28;20068;-88
2021/09/19 08:58:55;;;;;;;14.90;9.48;;;;;;;;;;5044443;28;20389;-89
2021/09/19 09:01:22;;;;;;;11.25;7.82;;;;;;;;;;5041470;28;20041;-88
2021/09/19 09:03:49;;;;;;;10.93;8.93;;;;;;;;;;5056383;28;20045;-88
2021/09/19 09:06:18;;;;;;;11.40;8.73;;;;;;;;;;5055925;28;20436;-89
2021/09/19 09:08:47;;;;;;;11.93;8.88;;;;;;;;;;5047537;28;20132;-87
2021/09/19 09:11:14;;;;;;;12.88;9.60;;;;;;;;;;5042072;28;20073;-89
2021/09/19 09:13:43;;;;;;;11.75;8.60;;;;;;;;;;5050678;28;20045;-90
2021/09/19 09:16:12;;;;;;;11.52;9.00;;;;;;;;;;5049338;28;20041;-88
2021/09/19 09:18:40;;;;;;;11.50;9.43;;;;;;;;;;5051981;28;20041;-87
2021/09/19 09:21:09;;;;;;;13.02;9.73;;;;;;;;;;5055417;28;20040;-88
2021/09/19 09:23:38;;;;;;;12.05;8.32;;;;;;;;;;5037371;28;20474;-88
2021/09/19 09:26:33;;;;;;;11.05;8.23;;;;;;;;;;5034176;28;20049;-87
2021/09/19 09:29:04;;;;;;;10.93;8.75;;;;;;;;;;5045073;28;20045;-88
2021/09/19 09:31:35;;;;;;;10.82;8.48;;;;;;;;;;5055279;28;20076;-88
2021/09/19 09:34:07;;;;;;;10.40;8.75;;;;;;;;;;5057445;28;20512;-88
2021/09/19 09:36:59;;;;;;;9.55;7.60;;;;;;;;;;5056233;28;20053;-89
2021/09/19 09:39:28;;;;;;;11.98;8.10;;;;;;;;;;5051642;28;20435;-89
2021/09/19 09:41:59;;;;;;;11.35;8.80;;;;;;;;;;5055204;28;20053;-89
2021/09/19 09:44:42;;;;;;;11.40;8.80;;;;;;;;;;5056120;28;20473;-89
2021/09/19 09:47:11;;;;;;;12.07;9.60;;;;;;;;;;5055236;28;20461;-89
2021/09/19 09:49:50;;;;;;;11.10;8.15;;;;;;;;;;5055070;28;20126;-89
2021/09/19 09:52:22;;;;;;;11.38;9.32;;;;;;;;;;5055098;28;20456;-89
2021/09/19 09:54:52;;;;;;;9.40;8.05;;;;;;;;;;5055332;28;20473;-89
2021/09/19 09:57:49;;;;;;;9.70;8.23;;;;;;;;;;5055673;28;20369;-90
2021/09/19 10:00:21;;;;;;;10.38;8.43;;;;;;;;;;5053091;28;20098;-89
2021/09/19 10:02:50;;;;;;;10.93;9.27;;;;;;;;;;5055457;28;20469;-89
2021/09/19 10:05:18;;;;;;;13.27;9.13;;;;;;;;;;5054902;28;20408;-88
2021/09/19 10:07:51;;;;;;;10.50;8.73;;;;;;;;;;5055611;28;20048;-89
2021/09/19 10:10:20;;;;;;;12.43;9.30;;;;;;;;;;5052606;28;20041;-89
2021/09/19 10:12:47;;;;;;;10.80;8.90;;;;;;;;;;5055512;28;20076;-90
2021/09/19 10:15:17;;;;;;;11.50;9.40;;;;;;;;;;5054426;28;20465;-88
2021/09/19 10:17:44;;;;;;;12.07;9.63;;;;;;;;;;5055017;28;20061;-89
2021/09/19 10:20:13;;;;;;;12.60;9.93;;;;;;;;;;5055359;28;20361;-88
2021/09/19 10:22:48;;;;;;;11.45;9.02;;;;;;;;;;5055059;28;20386;-89
2021/09/19 10:25:22;;;;;;;11.57;9.85;;;;;;;;;;5055213;28;20040;-88
2021/09/19 10:27:49;;;;;;;13.88;10.15;;;;;;;;;;5054892;28;20053;-89
2021/09/19 10:30:18;;;;;;;11.48;10.27;;;;;;;;;;5054478;28;20130;-89
2021/09/19 10:33:00;;;;;;;12.90;10.05;;;;;;;;;;5054208;28;20049;-89
2021/09/19 10:35:30;;;;;;;11.75;10.05;;;;;;;;;;5055192;28;20049;-88
2021/09/19 10:38:03;;;;;;;11.88;9.68;;;;;;;;;;5051586;28;20127;-89
2021/09/19 10:40:43;;;;;;;13.13;10.90;;;;;;;;;;5054446;28;20055;-89
2021/09/19 10:43:10;;;;;;;13.50;11.02;;;;;;;;;;5054434;28;20045;-90
2021/09/19 10:45:42;;;;;;;12.40;10.65;;;;;;;;;;5053924;28;20049;-89
2021/09/19 10:48:14;;;;;;;12.65;11.20;;;;;;;;;;5054876;28;20052;-89
2021/09/19 10:50:42;;;;;;;13.05;11.15;;;;;;;;;;5053582;28;20040;-89
2021/09/19 10:53:25;;;;;;;12.73;11.00;;;;;;;;;;5054403;28;20064;-89
2021/09/19 10:55:57;;;;;;;14.38;11.13;;;;;;;;;;5054331;28;20036;-89
2021/09/19 10:58:31;;;;;;;12.32;10.77;;;;;;;;;;5053349;28;20064;-89
2021/09/19 11:01:11;;;;;;;13.18;11.77;;;;;;;;;;5048669;28;20385;-88
2021/09/19 11:03:38;;;;;;;13.25;11.85;;;;;;;;;;5050511;28;20147;-89
2021/09/19 11:06:05;;;;;;;13.15;11.73;;;;;;;;;;5054827;28;20049;-89
2021/09/19 11:08:39;;;;;;;14.13;11.93;;;;;;;;;;5053783;28;20037;-89
2021/09/19 11:11:21;;;;;;;12.82;11.38;;;;;;;;;;5054961;28;20139;-88
2021/09/19 11:13:53;;;;;;;12.63;10.68;;;;;;;;;;5053965;28;20147;-90
2021/09/19 11:16:27;;;;;;;12.85;11.30;;;;;;;;;;5053647;28;20502;-89
2021/09/19 11:18:55;;;;;;;12.65;11.07;;;;;;;;;;5045118;28;20458;-89
2021/09/19 11:21:34;;;;;;;12.27;10.98;;;;;;;;;;5034609;28;20086;-88
2021/09/19 11:24:04;;;;;;;15.43;10.45;;;;;;;;;;5033891;28;20469;-89
2021/09/19 11:26:32;;;;;;;12.13;10.52;;;;;;;;;;5034027;28;20427;-89
2021/09/19 11:29:01;;;;;;;12.00;10.80;;;;;;;;;;5034704;28;20444;-89
2021/09/19 11:31:29;;;;;;;12.07;10.77;;;;;;;;;;5034256;28;20128;-90
2021/09/19 11:33:57;;;;;;;12.57;10.20;;;;;;;;;;5033961;28;20106;-90
2021/09/19 11:36:24;;;;;;;12.25;10.40;;;;;;;;;;5033610;28;20045;-89
2021/09/19 11:38:54;;;;;;;13.07;11.05;;;;;;;;;;5043012;28;20112;-89
2021/09/19 11:41:22;;;;;;;13.20;11.10;;;;;;;;;;5053740;28;20080;-90
2021/09/19 11:43:51;;;;;;;12.23;10.90;;;;;;;;;;5053820;28;20045;-89
2021/09/19 11:46:20;;;;;;;13.35;11.65;;;;;;;;;;5054278;28;20041;-90
2021/09/19 11:48:49;;;;;;;12.18;10.90;;;;;;;;;;5044884;28;20049;-90
2021/09/19 11:51:18;;;;;;;12.02;10.50;;;;;;;;;;5036784;28;20053;-89
2021/09/19 11:54:01;;;;;;;13.85;11.07;;;;;;;;;;5037812;28;20057;-90
2021/09/19 11:56:30;;;;;;;12.63;10.73;;;;;;;;;;5037557;28;20060;-90
2021/09/19 11:58:57;;;;;;;12.45;10.43;;;;;;;;;;5045680;28;20045;-89
2021/09/19 12:01:25;;;;;;;11.20;9.35;;;;;;;;;;5057331;28;20408;-90
2021/09/19 12:04:03;;;;;;;12.63;10.10;;;;;;;;;;5058189;28;20098;-89
2021/09/19 12:06:32;;;;;;;12.93;10.50;;;;;;;;;;5058205;28;20049;-89
2021/09/19 12:09:08;;;;;;;12.90;10.82;;;;;;;;;;5055592;28;20096;-89
2021/09/19 12:11:39;;;;;;;10.55;9.27;;;;;;;;;;5056892;28;20068;-89
2021/09/19 12:14:13;;;;;;;11.60;10.40;;;;;;;;;;5058479;28;20140;-89
2021/09/19 12:16:40;;;;;;;12.25;10.00;;;;;;;;;;5058730;28;20045;-90
2021/09/19 12:19:25;;;;;;;12.48;10.43;;;;;;;;;;5052941;28;20072;-89
2021/09/19 12:22:04;;;;;;;14.05;11.90;;;;;;;;;;5057047;28;20045;-89
2021/09/19 12:24:36;;;;;;;11.32;10.13;;;;;;;;;;5056917;28;20509;-89
2021/09/19 12:27:19;;;;;;;12.23;10.52;;;;;;;;;;5056966;28;20587;-89
2021/09/19 12:30:17;;;;;;;11.25;9.93;;;;;;;;;;5057171;28;20045;-89
2021/09/19 12:32:47;;;;;;;11.57;10.15;;;;;;;;;;5058005;28;20087;-90
2021/09/19 12:35:17;;;;;;;13.32;10.55;;;;;;;;;;5057155;28;20444;-90
2021/09/19 12:37:46;;;;;;;11.05;9.68;;;;;;;;;;5057165;28;20045;-89
2021/09/19 12:40:15;;;;;;;11.38;9.80;;;;;;;;;;5055815;28;20041;-90
2021/09/19 12:42:42;;;;;;;11.55;9.93;;;;;;;;;;5057269;28;20073;-88
2021/09/19 12:45:12;;;;;;;10.45;9.13;;;;;;;;;;5057398;28;20051;-88
2021/09/19 12:47:41;;;;;;;14.85;10.27;;;;;;;;;;5057560;28;20052;-89
2021/09/19 12:50:11;;;;;;;10.40;9.27;;;;;;;;;;5056765;28;20493;-89
2021/09/19 12:52:56;;;;;;;12.02;9.38;;;;;;;;;;5056949;28;20049;-89
2021/09/19 12:55:23;;;;;;;11.98;9.82;;;;;;;;;;5056572;28;20084;-90
2021/09/19 12:57:50;;;;;;;12.00;10.18;;;;;;;;;;5056996;28;20103;-89
2021/09/19 13:03:10;;;;;;;11.45;10.23;;;;;;;;;;5046043;28;20480;-90
2021/09/19 13:05:37;;;;;;;10.07;8.95;;;;;;;;;;5056793;28;20048;-89
2021/09/19 13:08:05;;;;;;;9.95;8.48;;;;;;;;;;5056293;28;20052;-89
2021/09/19 13:10:41;;;;;;;9.88;8.18;;;;;;;;;;5056486;28;20594;-90
2021/09/19 13:13:11;;;;;;;9.85;8.50;;;;;;;;;;5056941;28;20454;-90
2021/09/19 13:15:39;;;;;;;8.60;7.53;;;;;;;;;;5056592;28;20128;-89
2021/09/19 13:18:08;;;;;;;9.60;8.07;;;;;;;;;;5053246;28;20037;-89
2021/09/19 13:20:35;;;;;;;8.38;6.93;;;;;;;;;;5036722;28;20045;-89
2021/09/19 13:23:02;;;;;;;9.55;8.00;;;;;;;;;;5036657;28;20085;-88
2021/09/19 13:25:32;;;;;;;8.25;7.30;;;;;;;;;;5036390;28;20389;-89
2021/09/19 13:28:01;;;;;;;8.73;7.07;;;;;;;;;;5036153;28;20053;-89
2021/09/19 13:30:28;;;;;;;7.70;6.57;;;;;;;;;;5035956;28;20385;-90
2021/09/19 13:32:54;;;;;;;8.85;7.15;;;;;;;;;;5036370;28;20049;-89
2021/09/19 13:35:21;;;;;;;7.13;6.43;;;;;;;;;;5036359;28;20100;-89
2021/09/19 13:37:54;;;;;;;10.35;6.30;;;;;;;;;;5036373;28;20132;-89
2021/09/19 13:40:22;;;;;;;7.63;6.57;;;;;;;;;;5035723;28;20050;-89
2021/09/19 13:42:56;;;;;;;8.40;6.97;;;;;;;;;;5035545;28;20140;-89
2021/09/19 13:45:23;;;;;;;6.72;5.88;;;;;;;;;;5035382;28;20100;-89
2021/09/19 13:47:52;;;;;;;7.88;5.65;;;;;;;;;;5035351;28;20049;-90
2021/09/19 13:50:21;;;;;;;7.45;6.20;;;;;;;;;;5035557;28;20482;-89
2021/09/19 13:52:53;;;;;;;7.25;5.70;;;;;;;;;;5035749;28;20049;-90
2021/09/19 13:55:26;;;;;;;7.45;5.53;;;;;;;;;;5044799;28;20120;-88
2021/09/19 13:57:56;;;;;;;11.85;6.28;;;;;;;;;;5045000;28;20484;-89
2021/09/19 14:00:23;;;;;;;6.70;5.60;;;;;;;;;;5053135;28;20102;-87
2021/09/19 14:02:50;;;;;;;5.70;4.80;;;;;;;;;;5044506;28;20044;-89
2021/09/19 14:05:16;;;;;;;5.70;4.18;;;;;;;;;;5055338;28;20172;-88
2021/09/19 14:07:44;;;;;;;9.57;5.07;;;;;;;;;;5055807;28;20053;-88
2021/09/19 14:10:11;;;;;;;5.80;4.47;;;;;;;;;;5036808;28;20045;-89
2021/09/19 14:12:38;;;;;;;9.27;4.40;;;;;;;;;;5038485;28;20041;-89
2021/09/19 14:15:18;;;;;;;7.20;4.45;;;;;;;;;;5036329;28;20049;-89
2021/09/19 14:17:51;;;;;;;5.55;4.80;;;;;;;;;;5051437;28;20053;-89
2021/09/19 14:20:30;;;;;;;;;;;;;;;;;;;;;
2021/09/19 14:22:59;;;;;;;7.88;4.82;;;;;;;;;;5050832;28;20037;-89
2021/09/19 14:25:30;;;;;;;4.88;4.22;;;;;;;;;;5048293;28;20064;-89
2021/09/19 14:28:07;;;;;;;;;;;;;;;;;;;;;
2021/09/19 14:30:36;;;;;;;5.68;3.83;;;;;;;;;;5042987;28;20052;-89
2021/09/19 14:33:09;;;;;;;6.03;4.63;;;;;;;;;;5040848;28;20551;-91
2021/09/19 14:35:47;;;;;;;;;;;;;;;;;;;;;
2021/09/19 14:38:32;;;;;;;5.38;3.85;;;;;;;;;;5034302;28;20053;-90
2021/09/19 14:41:10;;;;;;;3.72;3.20;;;;;;;;;;5034230;28;20374;-89
2021/09/19 14:43:44;;;;;;;5.45;3.45;;;;;;;;;;5032949;28;20049;-88
2021/09/19 14:46:13;;;;;;;5.60;3.28;;;;;;;;;;5032273;28;20053;-88